createdAt,value
2019-01-26T00:00:11.316Z,67.23
2019-01-26T00:01:11.239Z,67.14
2019-01-26T00:02:11.176Z,67.23
2019-01-26T00:03:11.107Z,67.23
2019-01-26T00:04:11.034Z,67.23
2019-01-26T00:05:10.958Z,66.85
2019-01-26T00:06:10.875Z,67.23
2019-01-26T00:07:10.805Z,67.23
2019-01-26T00:08:10.743Z,67.04
2019-01-26T00:09:10.669Z,67.04
2019-01-26T00:10:10.587Z,67.23
2019-01-26T00:11:10.519Z,67.04
2019-01-26T00:12:10.433Z,67.42
2019-01-26T00:13:10.385Z,67.14
2019-01-26T00:14:10.298Z,67.52
2019-01-26T00:15:10.232Z,67.04
2019-01-26T00:16:10.154Z,67.42
2019-01-26T00:17:10.077Z,67.04
2019-01-26T00:18:10.016Z,67.33
2019-01-26T00:19:09.938Z,67.33
2019-01-26T00:20:09.871Z,67.04
2019-01-26T00:21:09.792Z,67.42
2019-01-26T00:22:09.710Z,67.80
2019-01-26T00:23:09.633Z,67.04
2019-01-26T00:24:09.569Z,67.04
2019-01-26T00:25:09.485Z,66.66
2019-01-26T00:26:09.429Z,67.33
2019-01-26T00:27:09.369Z,67.42
2019-01-26T00:28:09.290Z,66.85
2019-01-26T00:29:09.210Z,66.94
2019-01-26T00:30:09.119Z,67.14
2019-01-26T00:31:09.046Z,66.94
2019-01-26T00:32:08.993Z,67.23
2019-01-26T00:33:10.416Z,67.23
2019-01-26T00:34:08.832Z,67.04
2019-01-26T00:35:08.756Z,67.14
2019-01-26T00:36:08.685Z,67.14
2019-01-26T00:37:08.619Z,66.85
2019-01-26T00:38:08.556Z,67.14
2019-01-26T00:39:08.483Z,66.85
2019-01-26T00:40:08.413Z,67.23
2019-01-26T00:41:08.329Z,66.94
2019-01-26T00:42:08.242Z,67.14
2019-01-26T00:43:08.174Z,67.52
2019-01-26T00:44:08.107Z,67.42
2019-01-26T00:45:08.026Z,67.71
2019-01-26T00:46:07.968Z,66.75
2019-01-26T00:47:07.892Z,67.04
2019-01-26T00:48:07.806Z,66.75
2019-01-26T00:49:07.742Z,67.14
2019-01-26T00:50:07.673Z,66.56
2019-01-26T00:51:07.598Z,66.75
2019-01-26T00:52:07.531Z,66.56
2019-01-26T00:53:07.456Z,66.75
2019-01-26T00:54:07.369Z,66.75
2019-01-26T00:55:07.294Z,66.94
2019-01-26T00:56:07.225Z,67.04
2019-01-26T00:57:07.155Z,67.52
2019-01-26T00:58:07.091Z,66.94
2019-01-26T00:59:07.079Z,66.56
2019-01-26T01:00:06.945Z,66.75
2019-01-26T01:01:06.875Z,67.52
2019-01-26T01:02:06.782Z,66.85
2019-01-26T01:03:06.712Z,67.52
2019-01-26T01:04:06.653Z,66.94
2019-01-26T01:05:06.581Z,67.52
2019-01-26T01:06:06.531Z,67.42
2019-01-26T01:07:06.440Z,67.14
2019-01-26T01:08:06.348Z,67.14
2019-01-26T01:09:06.282Z,66.94
2019-01-26T01:10:06.217Z,67.23
2019-01-26T01:11:06.142Z,67.42
2019-01-26T01:12:06.054Z,67.23
2019-01-26T01:13:06.077Z,67.52
2019-01-26T01:14:05.923Z,67.33
2019-01-26T01:15:05.851Z,67.33
2019-01-26T01:16:05.774Z,66.75
2019-01-26T01:17:05.706Z,67.33
2019-01-26T01:18:05.614Z,66.85
2019-01-26T01:19:05.541Z,67.04
2019-01-26T01:20:05.477Z,67.14
2019-01-26T01:21:05.411Z,67.61
2019-01-26T01:22:05.323Z,67.42
2019-01-26T01:23:05.253Z,67.33
2019-01-26T01:24:05.191Z,67.42
2019-01-26T01:25:05.107Z,66.94
2019-01-26T01:26:05.043Z,67.52
2019-01-26T01:27:04.981Z,67.23
2019-01-26T01:28:04.927Z,67.42
2019-01-26T01:29:04.823Z,67.33
2019-01-26T01:30:04.740Z,67.23
2019-01-26T01:31:04.664Z,67.04
2019-01-26T01:32:04.597Z,67.42
2019-01-26T01:33:04.520Z,67.04
2019-01-26T01:34:04.463Z,67.23
2019-01-26T01:35:04.387Z,67.23
2019-01-26T01:36:04.310Z,67.04
2019-01-26T01:37:04.231Z,67.23
2019-01-26T01:38:04.170Z,66.94
2019-01-26T01:39:04.098Z,66.94
2019-01-26T01:40:04.023Z,67.04
2019-01-26T01:41:03.955Z,67.14
2019-01-26T01:42:03.866Z,66.85
2019-01-26T01:43:03.792Z,67.04
2019-01-26T01:44:03.721Z,67.04
2019-01-26T01:45:03.642Z,66.85
2019-01-26T01:46:03.586Z,67.23
2019-01-26T01:47:03.523Z,67.14
2019-01-26T01:48:03.441Z,67.04
2019-01-26T01:49:03.370Z,66.85
2019-01-26T01:50:03.284Z,67.14
2019-01-26T01:51:03.210Z,67.14
2019-01-26T01:52:03.150Z,67.04
2019-01-26T01:53:03.079Z,66.85
2019-01-26T01:54:02.993Z,67.04
2019-01-26T01:55:02.922Z,67.14
2019-01-26T01:56:02.848Z,67.23
2019-01-26T01:57:02.773Z,67.33
2019-01-26T01:58:02.716Z,67.23
2019-01-26T01:59:02.641Z,67.33
2019-01-26T02:00:02.572Z,67.23
2019-01-26T02:01:02.495Z,66.85
2019-01-26T02:02:02.412Z,67.42
2019-01-26T02:03:02.337Z,67.42
2019-01-26T02:04:02.268Z,67.52
2019-01-26T02:05:02.194Z,66.75
2019-01-26T02:06:02.134Z,66.66
2019-01-26T02:07:02.058Z,66.66
2019-01-26T02:08:01.972Z,67.14
2019-01-26T02:09:01.904Z,66.75
2019-01-26T02:10:01.838Z,66.85
2019-01-26T02:11:01.769Z,66.75
2019-01-26T02:12:01.698Z,66.94
2019-01-26T02:13:01.623Z,66.75
2019-01-26T02:14:01.539Z,67.04
2019-01-26T02:15:01.458Z,66.75
2019-01-26T02:16:01.397Z,66.85
2019-01-26T02:17:01.329Z,66.75
2019-01-26T02:18:01.244Z,66.94
2019-01-26T02:19:01.166Z,67.04
2019-01-26T02:20:01.104Z,67.04
2019-01-26T02:21:01.026Z,67.04
2019-01-26T02:22:00.960Z,66.94
2019-01-26T02:23:00.900Z,67.33
2019-01-26T02:24:00.833Z,67.04
2019-01-26T02:25:00.738Z,66.75
2019-01-26T02:26:00.687Z,66.75
2019-01-26T02:27:00.600Z,66.75
2019-01-26T02:28:00.522Z,67.04
2019-01-26T02:29:00.461Z,66.94
2019-01-26T02:30:00.394Z,67.14
2019-01-26T02:31:00.326Z,66.66
2019-01-26T02:32:00.229Z,66.75
2019-01-26T02:33:00.150Z,67.14
2019-01-26T02:34:00.092Z,67.14
2019-01-26T02:35:00.014Z,67.14
2019-01-26T02:35:59.944Z,66.66
2019-01-26T02:36:59.880Z,67.23
2019-01-26T02:37:59.785Z,66.75
2019-01-26T02:38:59.709Z,66.94
2019-01-26T02:39:59.653Z,66.75
2019-01-26T02:40:59.582Z,66.85
2019-01-26T02:41:59.495Z,66.75
2019-01-26T02:42:59.426Z,66.85
2019-01-26T02:43:59.349Z,67.52
2019-01-26T02:44:59.282Z,66.75
2019-01-26T02:45:59.220Z,66.85
2019-01-26T02:46:59.142Z,66.85
2019-01-26T02:47:59.076Z,67.42
2019-01-26T02:48:59.007Z,67.52
2019-01-26T02:49:58.921Z,66.75
2019-01-26T02:50:58.844Z,67.52
2019-01-26T02:51:58.764Z,67.61
2019-01-26T02:52:58.714Z,67.14
2019-01-26T02:53:58.636Z,67.61
2019-01-26T02:54:58.547Z,67.14
2019-01-26T02:55:58.489Z,67.61
2019-01-26T02:56:58.425Z,67.42
2019-01-26T02:57:58.343Z,67.33
2019-01-26T02:58:58.271Z,66.85
2019-01-26T02:59:58.201Z,67.14
2019-01-26T03:00:58.115Z,67.04
2019-01-26T03:01:58.041Z,67.04
2019-01-26T03:02:57.971Z,67.04
2019-01-26T03:03:57.907Z,66.85
2019-01-26T03:04:57.838Z,66.94
2019-01-26T03:05:57.777Z,67.14
2019-01-26T03:06:57.687Z,66.66
2019-01-26T03:07:57.622Z,66.56
2019-01-26T03:08:57.528Z,66.56
2019-01-26T03:09:57.459Z,66.85
2019-01-26T03:10:57.398Z,66.56
2019-01-26T03:11:57.331Z,66.56
2019-01-26T03:12:57.239Z,66.56
2019-01-26T03:13:57.168Z,66.66
2019-01-26T03:14:57.092Z,66.38
2019-01-26T03:15:57.023Z,66.38
2019-01-26T03:16:56.958Z,66.24
2019-01-26T03:17:56.901Z,66.53
2019-01-26T03:18:56.800Z,66.15
2019-01-26T03:19:56.730Z,65.86
2019-01-26T03:20:56.663Z,66.44
2019-01-26T03:21:56.603Z,65.48
2019-01-26T03:22:56.531Z,65.77
2019-01-26T03:23:56.444Z,65.96
2019-01-26T03:24:56.362Z,66.05
2019-01-26T03:25:56.285Z,65.77
2019-01-26T03:26:56.248Z,65.58
2019-01-26T03:27:56.158Z,65.58
2019-01-26T03:28:56.067Z,65.67
2019-01-26T03:29:55.992Z,65.58
2019-01-26T03:30:55.921Z,65.48
2019-01-26T03:31:55.845Z,65.77
2019-01-26T03:32:55.786Z,65.77
2019-01-26T03:33:55.717Z,65.29
2019-01-26T03:34:55.640Z,66.05
2019-01-26T03:35:55.591Z,65.77
2019-01-26T03:36:55.507Z,65.67
2019-01-26T03:37:55.408Z,65.10
2019-01-26T03:38:55.349Z,65.20
2019-01-26T03:39:55.260Z,65.67
2019-01-26T03:40:55.201Z,65.10
2019-01-26T03:41:55.127Z,65.96
2019-01-26T03:42:55.035Z,65.77
2019-01-26T03:43:54.963Z,65.96
2019-01-26T03:44:54.903Z,65.48
2019-01-26T03:45:54.839Z,65.58
2019-01-26T03:46:54.757Z,65.99
2019-01-26T03:47:54.687Z,65.99
2019-01-26T03:48:54.601Z,65.80
2019-01-26T03:49:54.531Z,65.70
2019-01-26T03:50:54.461Z,65.80
2019-01-26T03:51:54.394Z,66.05
2019-01-26T03:52:54.305Z,65.89
2019-01-26T03:53:54.229Z,66.15
2019-01-26T03:54:54.163Z,65.96
2019-01-26T03:55:54.085Z,65.99
2019-01-26T03:56:54.025Z,65.70
2019-01-26T03:57:53.952Z,65.70
2019-01-26T03:58:53.881Z,65.80
2019-01-26T03:59:53.791Z,65.77
2019-01-26T04:00:53.733Z,65.29
2019-01-26T04:01:53.655Z,65.80
2019-01-26T04:02:53.600Z,65.10
2019-01-26T04:03:53.511Z,65.80
2019-01-26T04:04:53.429Z,65.42
2019-01-26T04:05:53.354Z,65.96
2019-01-26T04:06:53.281Z,65.61
2019-01-26T04:07:53.206Z,65.58
2019-01-26T04:08:53.148Z,65.20
2019-01-26T04:09:53.076Z,65.48
2019-01-26T04:10:53.001Z,65.10
2019-01-26T04:11:52.931Z,65.00
2019-01-26T04:12:52.845Z,65.20
2019-01-26T04:13:52.769Z,65.00
2019-01-26T04:14:52.716Z,64.81
2019-01-26T04:15:52.628Z,64.81
2019-01-26T04:16:52.547Z,64.91
2019-01-26T04:17:52.472Z,65.48
2019-01-26T04:18:52.407Z,65.13
2019-01-26T04:19:52.339Z,65.23
2019-01-26T04:20:52.267Z,65.52
2019-01-26T04:21:52.194Z,65.42
2019-01-26T04:22:52.123Z,65.80
2019-01-26T04:23:52.036Z,65.70
2019-01-26T04:24:51.973Z,66.09
2019-01-26T04:25:51.902Z,65.61
2019-01-26T04:26:51.831Z,66.38
2019-01-26T04:27:51.759Z,66.28
2019-01-26T04:28:51.671Z,66.47
2019-01-26T04:29:51.604Z,66.28
2019-01-26T04:30:51.537Z,66.28
2019-01-26T04:31:51.466Z,65.89
2019-01-26T04:32:51.379Z,65.99
2019-01-26T04:33:51.311Z,65.70
2019-01-26T04:34:51.232Z,65.80
2019-01-26T04:35:51.167Z,66.38
2019-01-26T04:36:51.098Z,66.66
2019-01-26T04:37:51.030Z,66.85
2019-01-26T04:38:50.958Z,66.66
2019-01-26T04:39:50.886Z,66.38
2019-01-26T04:40:50.801Z,66.47
2019-01-26T04:41:50.731Z,66.56
2019-01-26T04:42:50.655Z,66.66
2019-01-26T04:43:50.582Z,67.04
2019-01-26T04:44:50.572Z,67.04
2019-01-26T04:45:50.448Z,66.91
2019-01-26T04:46:50.366Z,66.66
2019-01-26T04:47:50.294Z,66.66
2019-01-26T04:48:50.231Z,67.29
2019-01-26T04:49:50.165Z,67.29
2019-01-26T04:50:50.084Z,66.91
2019-01-26T04:51:50.020Z,66.91
2019-01-26T04:52:49.932Z,67.20
2019-01-26T04:53:49.854Z,66.72
2019-01-26T04:54:49.784Z,67.20
2019-01-26T04:55:49.713Z,67.39
2019-01-26T04:56:49.648Z,66.82
2019-01-26T04:57:49.580Z,67.10
2019-01-26T04:58:49.504Z,67.10
2019-01-26T04:59:49.430Z,67.10
2019-01-26T05:00:49.344Z,67.00
2019-01-26T05:01:49.276Z,67.00
2019-01-26T05:02:49.209Z,67.29
2019-01-26T05:03:49.134Z,67.00
2019-01-26T05:04:49.052Z,67.29
2019-01-26T05:05:48.980Z,67.29
2019-01-26T05:06:48.922Z,67.20
2019-01-26T05:07:48.836Z,67.20
2019-01-26T05:08:48.774Z,67.86
2019-01-26T05:09:48.705Z,67.58
2019-01-26T05:10:48.628Z,67.71
2019-01-26T05:11:48.554Z,67.39
2019-01-26T05:12:48.469Z,67.90
2019-01-26T05:13:48.396Z,67.52
2019-01-26T05:14:48.324Z,67.80
2019-01-26T05:15:48.263Z,67.42
2019-01-26T05:16:48.198Z,67.52
2019-01-26T05:17:48.129Z,67.99
2019-01-26T05:18:48.036Z,67.61
2019-01-26T05:19:47.960Z,68.18
2019-01-26T05:20:47.899Z,67.99
2019-01-26T05:21:47.839Z,68.09
2019-01-26T05:22:47.760Z,68.28
2019-01-26T05:23:47.684Z,68.28
2019-01-26T05:24:47.609Z,68.09
2019-01-26T05:25:47.524Z,68.47
2019-01-26T05:26:47.464Z,68.47
2019-01-26T05:27:47.396Z,68.18
2019-01-26T05:28:47.308Z,69.04
2019-01-26T05:29:47.236Z,69.04
2019-01-26T05:30:47.162Z,68.85
2019-01-26T05:31:47.092Z,68.66
2019-01-26T05:32:47.033Z,68.72
2019-01-26T05:33:46.957Z,68.53
2019-01-26T05:34:46.871Z,68.53
2019-01-26T05:35:46.801Z,68.82
2019-01-26T05:36:46.742Z,68.72
2019-01-26T05:37:46.677Z,68.72
2019-01-26T05:38:46.603Z,68.53
2019-01-26T05:39:46.521Z,68.66
2019-01-26T05:40:46.438Z,68.85
2019-01-26T05:41:46.367Z,68.57
2019-01-26T05:42:46.325Z,68.76
2019-01-26T05:43:46.224Z,69.04
2019-01-26T05:44:46.164Z,68.66
2019-01-26T05:45:46.085Z,68.66
2019-01-26T05:46:46.015Z,68.57
2019-01-26T05:47:48.929Z,68.47
2019-01-26T05:48:45.858Z,68.57
2019-01-26T05:49:45.784Z,68.76
2019-01-26T05:50:45.725Z,69.43
2019-01-26T05:51:45.654Z,69.10
2019-01-26T05:52:45.571Z,69.04
2019-01-26T05:53:45.502Z,69.10
2019-01-26T05:54:45.424Z,69.10
2019-01-26T05:55:45.352Z,69.01
2019-01-26T05:56:45.296Z,69.20
2019-01-26T05:57:45.228Z,69.01
2019-01-26T05:58:45.159Z,69.29
2019-01-26T05:59:45.082Z,69.48
2019-01-26T06:00:45.009Z,69.48
2019-01-26T06:01:44.951Z,69.39
2019-01-26T06:02:44.857Z,69.39
2019-01-26T06:03:44.786Z,68.63
2019-01-26T06:04:44.704Z,69.20
2019-01-26T06:05:44.624Z,68.72
2019-01-26T06:06:44.573Z,68.53
2019-01-26T06:07:44.498Z,68.53
2019-01-26T06:08:44.414Z,68.82
2019-01-26T06:09:44.344Z,68.53
2019-01-26T06:10:44.270Z,68.72
2019-01-26T06:11:44.195Z,68.53
2019-01-26T06:12:44.135Z,68.53
2019-01-26T06:13:44.063Z,69.39
2019-01-26T06:14:43.991Z,68.72
2019-01-26T06:15:43.923Z,68.82
2019-01-26T06:16:43.834Z,68.82
2019-01-26T06:17:43.762Z,69.39
2019-01-26T06:18:43.688Z,69.39
2019-01-26T06:19:43.613Z,69.48
2019-01-26T06:20:43.557Z,69.01
2019-01-26T06:21:43.483Z,69.01
2019-01-26T06:22:43.401Z,69.01
2019-01-26T06:23:43.324Z,69.01
2019-01-26T06:24:43.269Z,69.58
2019-01-26T06:25:43.192Z,69.58
2019-01-26T06:26:43.123Z,69.96
2019-01-26T06:27:43.045Z,69.77
2019-01-26T06:28:42.969Z,69.58
2019-01-26T06:29:42.896Z,69.58
2019-01-26T06:30:42.830Z,69.77
2019-01-26T06:31:42.758Z,69.39
2019-01-26T06:32:42.684Z,69.54
2019-01-26T06:33:42.608Z,69.54
2019-01-26T06:34:42.538Z,69.45
2019-01-26T06:35:42.460Z,69.45
2019-01-26T06:36:42.401Z,69.54
2019-01-26T06:37:42.327Z,69.07
2019-01-26T06:38:42.236Z,69.74
2019-01-26T06:39:42.174Z,69.54
2019-01-26T06:40:42.104Z,69.68
2019-01-26T06:41:42.036Z,69.74
2019-01-26T06:42:41.965Z,69.64
2019-01-26T06:43:41.891Z,69.83
2019-01-26T06:44:41.802Z,69.54
2019-01-26T06:45:41.734Z,69.74
2019-01-26T06:46:41.656Z,69.64
2019-01-26T06:47:41.580Z,69.54
2019-01-26T06:48:41.525Z,69.93
2019-01-26T06:49:41.450Z,69.64
2019-01-26T06:50:41.377Z,69.87
2019-01-26T06:51:41.304Z,69.58
2019-01-26T06:52:41.218Z,69.96
2019-01-26T06:53:41.146Z,69.68
2019-01-26T06:54:41.084Z,69.68
2019-01-26T06:55:41.013Z,69.68
2019-01-26T06:56:40.930Z,70.06
2019-01-26T06:57:40.859Z,70.06
2019-01-26T06:58:40.782Z,69.96
2019-01-26T06:59:40.708Z,70.06
2019-01-26T07:00:40.650Z,70.15
2019-01-26T07:01:40.577Z,70.53
2019-01-26T07:02:40.511Z,70.25
2019-01-26T07:03:40.425Z,70.63
2019-01-26T07:04:40.342Z,70.53
2019-01-26T07:05:40.272Z,70.72
2019-01-26T07:06:40.197Z,70.53
2019-01-26T07:07:40.126Z,70.63
2019-01-26T07:08:40.062Z,70.63
2019-01-26T07:09:39.994Z,70.44
2019-01-26T07:10:39.908Z,70.34
2019-01-26T07:11:39.834Z,70.44
2019-01-26T07:12:39.774Z,70.25
2019-01-26T07:13:39.704Z,70.44
2019-01-26T07:14:39.629Z,70.53
2019-01-26T07:15:39.557Z,70.44
2019-01-26T07:16:39.471Z,70.63
2019-01-26T07:17:39.396Z,70.44
2019-01-26T07:18:39.326Z,70.44
2019-01-26T07:19:39.248Z,70.63
2019-01-26T07:20:39.193Z,71.01
2019-01-26T07:21:39.121Z,70.72
2019-01-26T07:22:39.047Z,70.63
2019-01-26T07:23:38.975Z,71.20
2019-01-26T07:24:38.891Z,71.01
2019-01-26T07:25:38.822Z,71.01
2019-01-26T07:26:38.756Z,70.92
2019-01-26T07:27:38.691Z,70.82
2019-01-26T07:28:38.594Z,70.78
2019-01-26T07:29:38.528Z,70.88
2019-01-26T07:30:38.457Z,70.63
2019-01-26T07:31:38.380Z,71.01
2019-01-26T07:32:38.320Z,70.82
2019-01-26T07:33:38.253Z,71.01
2019-01-26T07:34:38.162Z,71.01
2019-01-26T07:35:38.090Z,71.20
2019-01-26T07:36:38.031Z,70.92
2019-01-26T07:37:37.957Z,70.72
2019-01-26T07:38:37.889Z,70.82
2019-01-26T07:39:37.811Z,70.72
2019-01-26T07:40:37.728Z,70.92
2019-01-26T07:41:37.658Z,70.63
2019-01-26T07:42:37.593Z,71.01
2019-01-26T07:43:37.521Z,70.92
2019-01-26T07:44:37.437Z,70.63
2019-01-26T07:45:37.368Z,71.48
2019-01-26T07:46:37.296Z,71.01
2019-01-26T07:47:37.224Z,71.20
2019-01-26T07:48:37.164Z,71.14
2019-01-26T07:49:37.090Z,71.04
2019-01-26T07:50:37.016Z,70.95
2019-01-26T07:51:36.947Z,71.14
2019-01-26T07:52:36.858Z,70.95
2019-01-26T07:53:36.784Z,70.95
2019-01-26T07:54:36.712Z,70.95
2019-01-26T07:55:36.642Z,71.52
2019-01-26T07:56:36.589Z,71.23
2019-01-26T07:57:36.509Z,71.20
2019-01-26T07:58:36.427Z,71.87
2019-01-26T07:59:36.362Z,71.68
2019-01-26T08:00:36.297Z,71.96
2019-01-26T08:01:36.227Z,71.52
2019-01-26T08:02:36.151Z,71.62
2019-01-26T08:03:36.075Z,71.81
2019-01-26T08:04:35.997Z,71.33
2019-01-26T08:05:35.928Z,72.09
2019-01-26T08:06:35.862Z,71.33
2019-01-26T08:07:35.784Z,71.23
2019-01-26T08:08:35.705Z,71.14
2019-01-26T08:09:35.635Z,71.14
2019-01-26T08:10:35.560Z,71.04
2019-01-26T08:11:35.491Z,71.18
2019-01-26T08:12:35.428Z,71.18
2019-01-26T08:13:35.366Z,71.27
2019-01-26T08:14:35.274Z,70.79
2019-01-26T08:15:35.198Z,71.27
2019-01-26T08:16:35.142Z,71.37
2019-01-26T08:17:35.071Z,70.79
2019-01-26T08:18:35.003Z,71.37
2019-01-26T08:19:34.927Z,71.37
2019-01-26T08:20:34.847Z,71.37
2019-01-26T08:21:34.773Z,71.37
2019-01-26T08:22:34.715Z,71.27
2019-01-26T08:23:34.632Z,70.89
2019-01-26T08:24:34.573Z,71.84
2019-01-26T08:25:34.499Z,71.59
2019-01-26T08:26:34.429Z,71.50
2019-01-26T08:27:34.357Z,71.21
2019-01-26T08:28:34.270Z,71.94
2019-01-26T08:29:34.205Z,71.31
2019-01-26T08:30:34.143Z,71.88
2019-01-26T08:31:34.071Z,71.78
2019-01-26T08:32:34.007Z,71.88
2019-01-26T08:33:33.923Z,72.23
2019-01-26T08:34:33.847Z,72.17
2019-01-26T08:35:33.780Z,71.88
2019-01-26T08:36:33.717Z,71.98
2019-01-26T08:37:33.644Z,71.88
2019-01-26T08:38:33.560Z,71.98
2019-01-26T08:39:33.493Z,72.45
2019-01-26T08:40:33.432Z,72.26
2019-01-26T08:41:33.377Z,72.07
2019-01-26T08:42:33.293Z,71.92
2019-01-26T08:43:33.222Z,71.59
2019-01-26T08:44:33.140Z,71.44
2019-01-26T08:45:33.076Z,71.88
2019-01-26T08:46:33.013Z,71.88
2019-01-26T08:47:32.940Z,72.17
2019-01-26T08:48:32.860Z,72.17
2019-01-26T08:49:32.790Z,72.55
2019-01-26T08:50:32.736Z,72.74
2019-01-26T08:51:32.653Z,73.22
2019-01-26T08:52:32.585Z,72.93
2019-01-26T08:53:32.521Z,72.83
2019-01-26T08:54:32.450Z,72.93
2019-01-26T08:55:32.381Z,72.83
2019-01-26T08:56:32.295Z,72.93
2019-01-26T08:57:32.231Z,72.87
2019-01-26T08:58:32.155Z,72.55
2019-01-26T08:59:32.083Z,72.68
2019-01-26T09:00:32.030Z,72.87
2019-01-26T09:01:31.963Z,72.20
2019-01-26T09:02:31.881Z,72.20
2019-01-26T09:03:31.818Z,72.49
2019-01-26T09:04:31.753Z,72.39
2019-01-26T09:05:31.676Z,72.49
2019-01-26T09:06:31.615Z,72.87
2019-01-26T09:07:31.540Z,72.68
2019-01-26T09:08:31.461Z,72.97
2019-01-26T09:09:31.392Z,73.07
2019-01-26T09:10:31.320Z,73.63
2019-01-26T09:11:31.250Z,73.83
2019-01-26T09:12:31.197Z,73.83
2019-01-26T09:13:31.128Z,72.97
2019-01-26T09:14:31.055Z,73.44
2019-01-26T09:15:30.980Z,73.44
2019-01-26T09:16:30.903Z,73.54
2019-01-26T09:17:30.839Z,73.83
2019-01-26T09:18:30.779Z,74.02
2019-01-26T09:19:30.707Z,74.11
2019-01-26T09:20:30.624Z,73.92
2019-01-26T09:21:30.563Z,74.49
2019-01-26T09:22:30.488Z,74.88
2019-01-26T09:23:30.416Z,74.88
2019-01-26T09:24:30.652Z,75.64
2019-01-26T09:25:30.296Z,75.45
2019-01-26T09:26:30.220Z,75.07
2019-01-26T09:27:30.148Z,74.98
2019-01-26T09:28:30.068Z,74.59
2019-01-26T09:29:30.018Z,75.07
2019-01-26T09:30:29.930Z,74.53
2019-01-26T09:31:29.860Z,74.34
2019-01-26T09:32:29.802Z,74.73
2019-01-26T09:33:29.729Z,73.96
2019-01-26T09:34:29.654Z,74.24
2019-01-26T09:35:29.624Z,74.15
2019-01-26T09:36:29.524Z,74.24
2019-01-26T09:37:29.462Z,74.15
2019-01-26T09:38:29.433Z,74.05
2019-01-26T09:39:29.316Z,74.24
2019-01-26T09:40:29.234Z,74.63
2019-01-26T09:41:29.168Z,74.63
2019-01-26T09:42:29.109Z,74.24
2019-01-26T09:43:29.046Z,74.44
2019-01-26T09:44:28.963Z,74.82
2019-01-26T09:45:28.890Z,75.45
2019-01-26T09:46:28.820Z,75.35
2019-01-26T09:47:28.753Z,75.83
2019-01-26T09:48:28.699Z,75.93
2019-01-26T09:49:28.628Z,75.83
2019-01-26T09:50:28.546Z,75.68
2019-01-26T09:51:28.477Z,75.49
2019-01-26T09:52:29.308Z,75.78
2019-01-26T09:53:28.355Z,75.30
2019-01-26T09:54:28.281Z,75.78
2019-01-26T09:55:28.213Z,75.83
2019-01-26T09:56:28.134Z,75.96
2019-01-26T09:57:28.060Z,75.87
2019-01-26T09:58:27.990Z,76.16
2019-01-26T09:59:27.927Z,76.25
2019-01-26T10:00:27.871Z,76.21
2019-01-26T10:01:27.794Z,76.21
2019-01-26T10:02:27.722Z,76.50
2019-01-26T10:03:27.662Z,76.79
2019-01-26T10:04:27.579Z,76.60
2019-01-26T10:05:27.787Z,76.79
2019-01-26T10:06:27.455Z,76.88
2019-01-26T10:07:27.388Z,76.16
2019-01-26T10:08:27.301Z,76.35
2019-01-26T10:09:27.226Z,76.45
2019-01-26T10:10:27.160Z,76.50
2019-01-26T10:11:27.094Z,76.25
2019-01-26T10:12:27.034Z,76.35
2019-01-26T10:13:26.971Z,76.21
2019-01-26T10:14:26.902Z,76.69
2019-01-26T10:15:26.833Z,76.40
2019-01-26T10:16:26.748Z,76.98
2019-01-26T10:17:26.676Z,76.88
2019-01-26T10:18:26.606Z,77.08
2019-01-26T10:19:26.535Z,77.08
2019-01-26T10:20:26.478Z,76.88
2019-01-26T10:21:26.412Z,76.73
2019-01-26T10:22:26.328Z,76.73
2019-01-26T10:23:26.260Z,76.92
2019-01-26T10:24:26.203Z,76.92
2019-01-26T10:25:26.136Z,76.92
2019-01-26T10:26:26.068Z,76.92
2019-01-26T10:27:25.997Z,76.64
2019-01-26T10:28:25.910Z,77.11
2019-01-26T10:29:25.844Z,76.06
2019-01-26T10:30:25.778Z,76.92
2019-01-26T10:31:25.716Z,77.11
2019-01-26T10:32:25.648Z,77.21
2019-01-26T10:33:25.593Z,77.11
2019-01-26T10:34:25.508Z,77.08
2019-01-26T10:35:25.437Z,77.40
2019-01-26T10:36:25.358Z,77.01
2019-01-26T10:37:25.288Z,77.21
2019-01-26T10:38:25.228Z,77.30
2019-01-26T10:39:25.163Z,76.92
2019-01-26T10:40:25.090Z,75.96
2019-01-26T10:41:25.012Z,76.25
2019-01-26T10:42:24.951Z,76.73
2019-01-26T10:43:24.872Z,76.45
2019-01-26T10:44:24.818Z,76.92
2019-01-26T10:45:24.746Z,77.01
2019-01-26T10:46:24.687Z,77.11
2019-01-26T10:47:24.594Z,76.82
2019-01-26T10:48:24.533Z,77.01
2019-01-26T10:49:24.463Z,76.54
2019-01-26T10:50:24.397Z,76.73
2019-01-26T10:51:24.322Z,76.67
2019-01-26T10:52:24.247Z,76.10
2019-01-26T10:53:24.178Z,76.29
2019-01-26T10:54:24.123Z,76.06
2019-01-26T10:55:24.055Z,76.25
2019-01-26T10:56:23.970Z,76.39
2019-01-26T10:57:23.902Z,76.10
2019-01-26T10:58:23.830Z,76.48
2019-01-26T10:59:23.762Z,76.35
2019-01-26T11:00:23.705Z,76.35
2019-01-26T11:01:23.636Z,76.48
2019-01-26T11:02:23.567Z,77.34
2019-01-26T11:03:23.493Z,76.64
2019-01-26T11:04:23.412Z,76.45
2019-01-26T11:05:23.346Z,77.15
2019-01-26T11:06:23.275Z,76.39
2019-01-26T11:07:23.207Z,76.57
2019-01-26T11:08:23.172Z,76.39
2019-01-26T11:09:23.084Z,76.29
2019-01-26T11:10:23.002Z,76.77
2019-01-26T11:11:22.953Z,76.57
2019-01-26T11:12:22.870Z,76.25
2019-01-26T11:13:22.802Z,76.10
2019-01-26T11:14:22.732Z,76.20
2019-01-26T11:15:22.677Z,76.67
2019-01-26T11:16:22.586Z,76.77
2019-01-26T11:17:22.520Z,76.67
2019-01-26T11:18:22.440Z,77.06
2019-01-26T11:19:22.373Z,76.86
2019-01-26T11:20:22.315Z,76.48
2019-01-26T11:21:22.249Z,76.96
2019-01-26T11:22:22.191Z,76.39
2019-01-26T11:23:22.112Z,76.48
2019-01-26T11:24:22.028Z,76.67
2019-01-26T11:25:21.958Z,76.39
2019-01-26T11:26:21.897Z,76.92
2019-01-26T11:27:21.832Z,77.15
2019-01-26T11:28:21.750Z,77.15
2019-01-26T11:29:21.681Z,76.64
2019-01-26T11:30:21.606Z,77.11
2019-01-26T11:31:21.536Z,77.21
2019-01-26T11:32:21.486Z,78.16
2019-01-26T11:33:21.413Z,78.16
2019-01-26T11:34:21.346Z,77.97
2019-01-26T11:35:21.273Z,78.07
2019-01-26T11:36:21.204Z,77.69
2019-01-26T11:37:21.124Z,77.87
2019-01-26T11:38:21.130Z,77.87
2019-01-26T11:39:20.988Z,78.26
2019-01-26T11:40:20.966Z,77.87
2019-01-26T11:41:20.856Z,78.26
2019-01-26T11:42:20.774Z,77.50
2019-01-26T11:43:20.706Z,77.82
2019-01-26T11:44:20.647Z,77.69
2019-01-26T11:45:20.579Z,77.06
2019-01-26T11:46:20.509Z,76.77
2019-01-26T11:47:20.437Z,76.77
2019-01-26T11:48:20.362Z,77.06
2019-01-26T11:49:20.288Z,76.67
2019-01-26T11:50:20.236Z,77.06
2019-01-26T11:51:20.218Z,77.78
2019-01-26T11:52:20.082Z,77.78
2019-01-26T11:53:20.011Z,77.78
2019-01-26T11:54:19.935Z,77.30
2019-01-26T11:55:19.882Z,77.69
2019-01-26T11:56:19.813Z,77.25
2019-01-26T11:57:19.744Z,77.72
2019-01-26T11:58:19.660Z,77.44
2019-01-26T11:59:19.590Z,77.44
2019-01-26T12:00:19.534Z,77.82
2019-01-26T12:01:19.465Z,77.82
2019-01-26T12:02:19.399Z,77.82
2019-01-26T12:03:19.328Z,77.63
2019-01-26T12:04:19.253Z,78.39
2019-01-26T12:05:19.172Z,78.20
2019-01-26T12:06:19.103Z,78.01
2019-01-26T12:07:19.036Z,77.72
2019-01-26T12:08:18.977Z,77.53
2019-01-26T12:09:18.901Z,77.82
2019-01-26T12:10:18.873Z,77.63
2019-01-26T12:11:18.768Z,77.44
2019-01-26T12:12:18.684Z,77.63
2019-01-26T12:13:18.614Z,77.30
2019-01-26T12:14:18.555Z,77.30
2019-01-26T12:15:18.489Z,77.34
2019-01-26T12:16:18.406Z,77.40
2019-01-26T12:17:18.378Z,77.72
2019-01-26T12:18:18.266Z,77.72
2019-01-26T12:19:22.308Z,77.53
2019-01-26T12:20:18.140Z,77.34
2019-01-26T12:21:18.072Z,77.63
2019-01-26T12:22:17.988Z,77.50
2019-01-26T12:23:17.918Z,78.20
2019-01-26T12:24:17.870Z,78.30
2019-01-26T12:25:17.797Z,78.39
2019-01-26T12:26:17.715Z,77.82
2019-01-26T12:27:17.653Z,77.44
2019-01-26T12:28:17.578Z,77.34
2019-01-26T12:29:17.514Z,77.34
2019-01-26T12:30:17.441Z,77.82
2019-01-26T12:31:17.377Z,77.82
2019-01-26T12:32:17.292Z,77.53
2019-01-26T12:33:17.223Z,77.44
2019-01-26T12:34:17.150Z,77.63
2019-01-26T12:35:17.082Z,77.44
2019-01-26T12:36:17.028Z,77.53
2019-01-26T12:37:16.956Z,77.53
2019-01-26T12:38:16.884Z,77.63
2019-01-26T12:39:16.819Z,77.53
2019-01-26T12:40:16.735Z,76.77
2019-01-26T12:41:16.666Z,77.15
2019-01-26T12:42:16.594Z,77.25
2019-01-26T12:43:16.524Z,77.15
2019-01-26T12:44:16.466Z,76.86
2019-01-26T12:45:16.401Z,76.96
2019-01-26T12:46:16.314Z,77.06
2019-01-26T12:47:17.115Z,76.77
2019-01-26T12:48:16.190Z,77.06
2019-01-26T12:49:16.121Z,76.10
2019-01-26T12:50:16.048Z,76.57
2019-01-26T12:51:15.983Z,76.39